Time;durP1;ratioP1;P1;durP2;ratioP2;P2;SDS_P1;SDS_P2;PMS_P1;PMS_P2;Temp;Humidity;BMP_temperature;BMP_pressure;BME280_temperature;BME280_humidity;BME280_pressure;Samples;Min_cycle;Max_cycle;Signal;HPM_P1;HPM_P2
2022/09/06 00:00:37;;;;;;;5.30;2.70;;;;;;;13.15;100.00;99611.36;105157;1270;61307;-72
2022/09/06 00:03:03;;;;;;;5.00;3.00;;;;;;;13.10;100.00;99612.95;105021;1270;61289;-72
2022/09/06 00:05:31;;;;;;;4.20;3.10;;;;;;;13.05;100.00;99611.73;104984;1271;61273;-72
2022/09/06 00:08:04;;;;;;;5.10;3.00;;;;;;;12.99;100.00;99608.88;105004;1271;68669;-72
2022/09/06 00:10:31;;;;;;;6.30;2.90;;;;;;;12.92;100.00;99611.46;104839;1271;74387;-72
2022/09/06 00:13:06;;;;;;;4.00;3.10;;;;;;;12.88;100.00;99608.57;105052;1270;61288;-72
2022/09/06 00:15:34;;;;;;;6.60;3.30;;;;;;;12.84;100.00;99611.66;104950;1270;61867;-72
2022/09/06 00:18:02;;;;;;;5.20;3.30;;;;;;;12.82;100.00;99613.10;105245;1270;75501;-72
2022/09/06 00:20:29;;;;;;;5.90;2.90;;;;;;;12.79;100.00;99611.88;105017;1271;69224;-72
2022/09/06 00:23:04;;;;;;;5.00;3.10;;;;;;;12.75;100.00;99612.27;105080;1270;73313;-73
2022/09/06 00:25:32;;;;;;;5.30;3.20;;;;;;;12.71;100.00;99608.08;104980;1271;61261;-72
2022/09/06 00:28:04;;;;;;;4.20;2.90;;;;;;;12.69;100.00;99602.87;105117;1270;61977;-72
2022/09/06 00:30:33;;;;;;;4.00;3.00;;;;;;;12.67;100.00;99604.77;105001;1271;75390;-72
2022/09/06 00:32:59;;;;;;;4.50;3.40;;;;;;;12.65;100.00;99600.64;104988;1271;61479;-72
2022/09/06 00:35:25;;;;;;;4.70;2.90;;;;;;;12.61;100.00;99597.49;105008;1271;61272;-72
2022/09/06 00:37:58;;;;;;;4.40;3.50;;;;;;;12.56;100.00;99601.23;105087;1270;61379;-72
2022/09/06 00:40:25;;;;;;;5.90;3.30;;;;;;;12.51;100.00;99604.75;105191;1271;61920;-72
2022/09/06 00:42:51;;;;;;;4.20;3.00;;;;;;;12.46;100.00;99609.34;105092;1270;76287;-72
2022/09/06 00:45:18;;;;;;;5.70;2.90;;;;;;;12.41;100.00;99612.89;105102;1270;69907;-72
2022/09/06 00:47:45;;;;;;;5.30;2.90;;;;;;;12.36;100.00;99616.27;104905;1270;74549;-72
2022/09/06 00:50:14;;;;;;;4.40;3.40;;;;;;;12.31;100.00;99613.17;104953;1271;61351;-72
2022/09/06 00:52:41;;;;;;;3.50;3.20;;;;;;;12.28;100.00;99616.58;104959;1270;61369;-71
2022/09/06 00:55:08;;;;;;;4.30;3.00;;;;;;;12.24;100.00;99618.46;105147;1270;75422;-72
2022/09/06 00:57:35;;;;;;;3.70;3.10;;;;;;;12.19;100.00;99619.14;104979;1271;61285;-71
2022/09/06 01:00:06;;;;;;;6.20;3.20;;;;;;;12.15;100.00;99618.29;104963;1270;72595;-71
2022/09/06 01:02:32;;;;;;;4.40;3.00;;;;;;;12.11;100.00;99616.41;105105;1270;61310;-72
2022/09/06 01:04:58;;;;;;;4.10;3.30;;;;;;;12.07;100.00;99615.59;105065;1270;61358;-74
2022/09/06 01:07:37;;;;;;;4.20;2.90;;;;;;;12.04;100.00;99618.11;104880;1271;61854;-72
2022/09/06 01:10:29;;;;;;;4.20;3.40;;;;;;;12.01;100.00;99618.48;105103;1270;70435;-73
2022/09/06 01:13:07;;;;;;;4.40;3.10;;;;;;;11.96;100.00;99613.79;105086;1270;73741;-72
2022/09/06 01:16:02;;;;;;;6.70;3.20;;;;;;;11.92;100.00;99610.17;105094;1270;61809;-73
2022/09/06 01:18:47;;;;;;;5.30;3.10;;;;;;;11.86;100.00;99605.87;104478;1279;61298;-72
2022/09/06 01:21:36;;;;;;;7.50;3.30;;;;;;;11.82;100.00;99609.45;104414;1279;75152;-72
2022/09/06 01:24:27;;;;;;;4.60;3.30;;;;;;;11.78;100.00;99608.80;103911;1284;69290;-72
2022/09/06 01:27:18;;;;;;;5.70;4.20;;;;;;;11.75;100.00;99604.73;103934;1284;73446;-72
2022/09/06 01:29:58;;;;;;;5.90;3.60;;;;;;;11.72;100.00;99603.15;103957;1284;61344;-72
2022/09/06 01:32:33;;;;;;;5.70;3.50;;;;;;;11.69;100.00;99606.20;103962;1284;61337;-72
2022/09/06 01:35:11;;;;;;;7.10;3.20;;;;;;;11.65;100.00;99611.73;103945;1284;76361;-72
2022/09/06 01:37:38;;;;;;;6.00;3.20;;;;;;;11.62;100.00;99608.95;103940;1284;70330;-72
2022/09/06 01:40:04;;;;;;;4.70;2.90;;;;;;;11.59;100.00;99605.74;104053;1284;61651;-73
2022/09/06 01:42:34;;;;;;;5.40;3.40;;;;;;;11.59;100.00;99603.98;103767;1286;61309;-72
2022/09/06 01:45:05;;;;;;;5.20;3.40;;;;;;;11.58;100.00;99602.57;103748;1286;61296;-71
2022/09/06 01:47:31;;;;;;;5.20;3.30;;;;;;;11.57;100.00;99600.16;103945;1284;75277;-71
2022/09/06 01:50:12;;;;;;;5.40;3.70;;;;;;;11.55;100.00;99596.55;103967;1284;61407;-72
2022/09/06 01:53:20;;;;;;;6.00;2.90;;;;;;;11.52;100.00;99595.67;104013;1286;74437;-72
2022/09/06 01:56:31;;;;;;;7.70;3.20;;;;;;;11.48;100.00;99594.65;103243;1290;61387;-72
2022/09/06 01:59:04;;;;;;;5.90;3.20;;;;;;;11.45;100.00;99599.28;103205;1291;61413;-71
2022/09/06 02:01:35;;;;;;;4.60;3.40;;;;;;;11.43;100.00;99597.42;103517;1286;76435;-71
2022/09/06 02:04:33;;;;;;;6.40;3.30;;;;;;;11.40;100.00;99598.70;103931;1286;69303;-71
2022/09/06 02:07:04;;;;;;;4.00;3.20;;;;;;;11.37;100.00;99599.63;103394;1291;73330;-71
2022/09/06 02:09:35;;;;;;;4.50;3.30;;;;;;;11.33;100.00;99592.92;103405;1291;61408;-72
2022/09/06 02:12:03;;;;;;;5.40;3.60;;;;;;;11.29;100.00;99589.45;103429;1290;61869;-72
2022/09/06 02:15:00;;;;;;;5.10;3.20;;;;;;;11.26;100.00;99592.10;103240;1291;76731;-72
2022/09/06 02:17:37;;;;;;;6.10;3.60;;;;;;;11.23;100.00;99592.28;102885;1294;70896;-72
2022/09/06 02:20:17;;;;;;;4.80;3.40;;;;;;;11.20;100.00;99594.23;102962;1294;73351;-72
2022/09/06 02:22:46;;;;;;;6.20;3.50;;;;;;;11.17;100.00;99594.39;102596;1297;61394;-72
2022/09/06 02:25:22;;;;;;;7.40;4.40;;;;;;;11.16;100.00;99590.89;102720;1294;61374;-72
2022/09/06 02:27:48;;;;;;;4.90;3.90;;;;;;;11.14;100.00;99588.89;103011;1294;74382;-72
2022/09/06 02:30:14;;;;;;;5.30;3.60;;;;;;;11.12;100.00;99583.34;102976;1294;61219;-71
2022/09/06 02:32:54;;;;;;;6.30;3.50;;;;;;;11.08;100.00;99584.27;103015;1290;61299;-71
2022/09/06 02:35:21;;;;;;;5.90;3.20;;;;;;;11.06;100.00;99584.59;103505;1284;61344;-71
2022/09/06 02:37:47;;;;;;;5.80;3.00;;;;;;;11.04;100.00;99582.91;103942;1284;61607;-71
2022/09/06 02:40:14;;;;;;;4.70;3.40;;;;;;;11.05;100.00;99583.73;103971;1284;76239;-72
2022/09/06 02:42:40;;;;;;;4.20;2.90;;;;;;;11.04;100.00;99581.98;103990;1284;61531;-72
2022/09/06 02:45:07;;;;;;;5.70;3.40;;;;;;;11.03;100.00;99581.52;104339;1277;61382;-72
2022/09/06 02:47:33;;;;;;;5.60;3.20;;;;;;;11.00;100.00;99580.13;104335;1278;61279;-72
2022/09/06 02:49:59;;;;;;;5.30;3.60;;;;;;;10.97;100.00;99580.09;104563;1277;61488;-72
2022/09/06 02:52:26;;;;;;;3.60;2.90;;;;;;;10.94;100.00;99585.42;104445;1277;61349;-72
2022/09/06 02:54:52;;;;;;;4.80;2.90;;;;;;;10.92;100.00;99589.48;104781;1270;61399;-72
2022/09/06 02:57:18;;;;;;;5.00;3.20;;;;;;;10.91;100.00;99587.38;105047;1270;61391;-72
2022/09/06 02:59:45;;;;;;;4.70;3.40;;;;;;;10.90;100.00;99585.33;104890;1270;61736;-71
2022/09/06 03:02:11;;;;;;;7.00;3.30;;;;;;;10.88;100.00;99583.98;104919;1270;61242;-71
2022/09/06 03:04:37;;;;;;;5.00;2.80;;;;;;;10.86;100.00;99582.55;104945;1271;61374;-71
2022/09/06 03:07:03;;;;;;;5.00;3.60;;;;;;;10.84;100.00;99580.86;105008;1271;61299;-71
2022/09/06 03:09:29;;;;;;;4.80;3.00;;;;;;;10.81;100.00;99584.97;105077;1270;61381;-71
2022/09/06 03:11:55;;;;;;;6.60;2.90;;;;;;;10.78;100.00;99586.95;104940;1271;61322;-71
2022/09/06 03:14:21;;;;;;;4.90;3.40;;;;;;;10.74;100.00;99585.91;105096;1270;76324;-72
2022/09/06 03:16:47;;;;;;;5.60;2.70;;;;;;;10.71;100.00;99585.92;105092;1270;61279;-72
2022/09/06 03:19:13;;;;;;;5.10;3.30;;;;;;;10.68;100.00;99582.86;104796;1273;61272;-72
2022/09/06 03:21:39;;;;;;;3.40;2.60;;;;;;;10.66;100.00;99580.13;105064;1270;61349;-72
2022/09/06 03:24:05;;;;;;;2.90;2.60;;;;;;;10.64;100.00;99582.77;104987;1270;61404;-73
2022/09/06 03:26:32;;;;;;;7.80;3.30;;;;;;;10.61;100.00;99584.70;105080;1270;61177;-73
2022/09/06 03:28:57;;;;;;;4.70;3.00;;;;;;;10.59;100.00;99587.16;104937;1272;61512;-71
2022/09/06 03:31:23;;;;;;;4.00;3.10;;;;;;;10.55;100.00;99587.89;105006;1270;61360;-72
2022/09/06 03:33:49;;;;;;;6.00;3.20;;;;;;;10.50;100.00;99588.89;105093;1270;61379;-72
2022/09/06 03:36:15;;;;;;;5.30;3.20;;;;;;;10.44;100.00;99583.56;105089;1270;61313;-72
2022/09/06 03:38:41;;;;;;;4.80;3.10;;;;;;;10.38;100.00;99578.00;105059;1270;69424;-73
2022/09/06 03:41:08;;;;;;;4.50;3.00;;;;;;;10.34;100.00;99576.66;105039;1270;61332;-72
2022/09/06 03:43:34;;;;;;;7.50;4.30;;;;;;;10.31;100.00;99571.84;105088;1270;61386;-73
2022/09/06 03:46:01;;;;;;;6.00;3.50;;;;;;;10.30;100.00;99571.91;105035;1270;61278;-73
2022/09/06 03:48:28;;;;;;;4.50;2.70;;;;;;;10.28;100.00;99568.46;104997;1270;61442;-73
2022/09/06 03:50:56;;;;;;;5.10;3.10;;;;;;;10.26;100.00;99571.76;104870;1271;69213;-73
2022/09/06 03:53:23;;;;;;;6.20;3.60;;;;;;;10.26;100.00;99575.66;104896;1274;73221;-71
2022/09/06 03:55:52;;;;;;;5.10;2.90;;;;;;;10.25;100.00;99574.48;105094;1270;61360;-71
2022/09/06 03:58:21;;;;;;;4.40;3.00;;;;;;;10.23;100.00;99571.90;105090;1270;61914;-72
2022/09/06 04:00:46;;;;;;;4.00;3.00;;;;;;;10.21;100.00;99568.80;104842;1273;76444;-72
2022/09/06 04:03:13;;;;;;;5.20;3.30;;;;;;;10.20;100.00;99568.16;104949;1271;61378;-72
2022/09/06 04:05:43;;;;;;;5.70;3.40;;;;;;;10.20;100.00;99568.18;104947;1271;61424;-72
2022/09/06 04:08:09;;;;;;;7.50;3.70;;;;;;;10.22;100.00;99559.69;105041;1270;61166;-72
2022/09/06 04:10:36;;;;;;;5.80;2.90;;;;;;;10.24;100.00;99554.59;104765;1272;61348;-72
2022/09/06 04:13:02;;;;;;;4.80;3.40;;;;;;;10.28;100.00;99554.93;105003;1270;76198;-71
2022/09/06 04:15:28;;;;;;;7.50;3.60;;;;;;;10.31;100.00;99560.48;104941;1270;61382;-72
2022/09/06 04:17:54;;;;;;;4.80;3.10;;;;;;;10.33;100.00;99553.97;105011;1270;61259;-72
2022/09/06 04:20:21;;;;;;;4.80;3.50;;;;;;;10.37;100.00;99552.34;105084;1268;61479;-72
2022/09/06 04:22:47;;;;;;;4.40;3.20;;;;;;;10.40;100.00;99555.86;105103;1270;61508;-72
2022/09/06 04:25:13;;;;;;;4.20;3.00;;;;;;;10.49;100.00;99558.95;105071;1270;61256;-72
2022/09/06 04:27:39;;;;;;;5.80;3.50;;;;;;;10.77;100.00;99563.71;104898;1271;61337;-72
2022/09/06 04:30:06;;;;;;;4.70;3.60;;;;;;;11.07;100.00;99564.27;105032;1270;61442;-72
2022/09/06 04:32:33;;;;;;;4.60;2.80;;;;;;;11.37;100.00;99569.02;105100;1270;61271;-72
2022/09/06 04:34:59;;;;;;;5.40;3.40;;;;;;;11.67;100.00;99570.01;104883;1271;61306;-72
2022/09/06 04:37:25;;;;;;;5.00;3.50;;;;;;;11.90;100.00;99574.08;105017;1271;61375;-71
2022/09/06 04:39:51;;;;;;;5.90;3.30;;;;;;;12.23;100.00;99575.94;104996;1270;61450;-71
2022/09/06 04:42:17;;;;;;;8.90;3.70;;;;;;;12.55;100.00;99575.84;105108;1270;61368;-71
2022/09/06 04:44:43;;;;;;;5.00;3.70;;;;;;;12.95;100.00;99569.77;105020;1271;61939;-71
2022/09/06 04:47:13;;;;;;;6.00;3.60;;;;;;;13.25;100.00;99569.73;104899;1269;61261;-71
2022/09/06 04:49:40;;;;;;;;;;;;;;;13.16;100.00;99570.29;105145;1270;69435;-73
2022/09/06 04:52:06;;;;;;;5.90;3.60;;;;;;;13.43;100.00;99573.11;105216;1270;73381;-72
2022/09/06 04:54:33;;;;;;;7.60;3.70;;;;;;;13.79;100.00;99574.14;105098;1270;61366;-72
2022/09/06 04:56:59;;;;;;;6.40;4.10;;;;;;;13.96;100.00;99579.73;104888;1271;61411;-72
2022/09/06 04:59:24;;;;;;;6.00;4.60;;;;;;;14.21;100.00;99583.79;105043;1271;61393;-72
2022/09/06 05:01:51;;;;;;;5.40;3.90;;;;;;;14.41;100.00;99584.02;105027;1271;61269;-76
2022/09/06 05:04:17;;;;;;;4.00;3.40;;;;;;;14.64;100.00;99586.27;104976;1271;61747;-71
2022/09/06 05:06:44;;;;;;;4.80;3.90;;;;;;;14.95;100.00;99580.72;105091;1270;61295;-72
2022/09/06 05:09:10;;;;;;;5.90;4.10;;;;;;;15.17;100.00;99581.02;105007;1270;61282;-72
2022/09/06 05:11:36;;;;;;;5.30;3.70;;;;;;;15.38;100.00;99584.20;105085;1270;61341;-72
2022/09/06 05:14:02;;;;;;;5.00;4.00;;;;;;;15.62;100.00;99584.90;105136;1270;61308;-72
2022/09/06 05:16:28;;;;;;;16.70;4.90;;;;;;;15.83;100.00;99583.41;105123;1270;61423;-72
2022/09/06 05:18:54;;;;;;;5.20;3.30;;;;;;;16.09;100.00;99579.74;105091;1270;61302;-72
2022/09/06 05:21:20;;;;;;;6.60;4.20;;;;;;;16.32;100.00;99575.70;104937;1270;73576;-73
2022/09/06 05:23:46;;;;;;;8.00;4.20;;;;;;;16.44;100.00;99576.73;104904;1270;61514;-73
2022/09/06 05:26:12;;;;;;;6.60;3.60;;;;;;;16.57;100.00;99575.83;105077;1268;61365;-73
2022/09/06 05:28:38;;;;;;;6.50;3.20;;;;;;;16.72;100.00;99574.08;105069;1270;61375;-73
2022/09/06 05:31:10;;;;;;;4.80;3.80;;;;;;;16.87;100.00;99574.61;105099;1270;61382;-72
2022/09/06 05:33:37;;;;;;;5.40;3.30;;;;;;;16.85;100.00;99570.08;105062;1270;75674;-76
2022/09/06 05:36:04;;;;;;;4.60;3.00;;;;;;;16.79;100.00;99570.42;105143;1270;61280;-72
2022/09/06 05:38:31;;;;;;;4.40;3.20;;;;;;;16.79;100.00;99575.86;105085;1270;73765;-72
2022/09/06 05:40:57;;;;;;;5.40;2.90;;;;;;;16.79;100.00;99573.35;105067;1270;61395;-72
2022/09/06 05:43:23;;;;;;;3.70;2.90;;;;;;;16.86;100.00;99570.21;105068;1270;60142;-72
2022/09/06 05:45:50;;;;;;;3.80;2.80;;;;;;;16.87;100.00;99574.96;105063;1270;61389;-73
2022/09/06 05:48:17;;;;;;;5.20;3.20;;;;;;;16.86;100.00;99576.67;105050;1268;61274;-73
2022/09/06 05:50:43;;;;;;;5.30;2.90;;;;;;;16.74;100.00;99577.82;105021;1270;74388;-73
2022/09/06 05:53:10;;;;;;;4.50;2.60;;;;;;;16.74;100.00;99577.09;105066;1270;61295;-72
2022/09/06 05:55:35;;;;;;;5.80;3.00;;;;;;;16.76;100.00;99577.64;105080;1270;61349;-72
2022/09/06 05:58:01;;;;;;;4.30;2.90;;;;;;;16.83;100.00;99581.24;105030;1270;61361;-72
2022/09/06 06:00:27;;;;;;;4.80;2.80;;;;;;;16.94;100.00;99581.06;105074;1270;61358;-73
2022/09/06 06:02:53;;;;;;;4.80;3.50;;;;;;;17.00;100.00;99581.93;105024;1270;61299;-72
2022/09/06 06:05:19;;;;;;;6.30;3.30;;;;;;;17.00;100.00;99576.23;105047;1270;61307;-72
2022/09/06 06:07:46;;;;;;;6.40;3.00;;;;;;;17.00;100.00;99578.20;105106;1270;61311;-72
2022/09/06 06:10:12;;;;;;;3.60;3.10;;;;;;;16.98;100.00;99578.17;105037;1270;70327;-72
2022/09/06 06:12:38;;;;;;;5.20;2.90;;;;;;;17.00;100.00;99576.54;105019;1270;74349;-72
2022/09/06 06:15:06;;;;;;;6.10;3.00;;;;;;;16.93;100.00;99575.39;105073;1270;61298;-72
2022/09/06 06:17:32;;;;;;;6.00;3.10;;;;;;;16.81;100.00;99573.13;105074;1270;61256;-72
2022/09/06 06:19:57;;;;;;;5.40;3.10;;;;;;;16.82;100.00;99576.27;105048;1270;61240;-73
2022/09/06 06:22:24;;;;;;;7.30;4.10;;;;;;;16.88;100.00;99565.73;103966;1270;1502794;-72
2022/09/06 06:24:50;;;;;;;6.90;3.20;;;;;;;16.81;100.00;99559.48;105076;1270;61359;-72
2022/09/06 06:27:16;;;;;;;4.70;3.30;;;;;;;16.69;100.00;99566.98;104972;1270;62130;-72
2022/09/06 06:29:42;;;;;;;3.50;3.00;;;;;;;16.61;100.00;99573.34;105076;1270;61180;-72
2022/09/06 06:32:08;;;;;;;5.90;3.10;;;;;;;16.52;100.00;99572.61;105061;1270;61278;-72
2022/09/06 06:34:34;;;;;;;4.90;3.10;;;;;;;16.43;100.00;99575.48;105056;1270;61818;-72
2022/09/06 06:37:00;;;;;;;5.70;3.40;;;;;;;16.32;100.00;99569.66;104992;1270;61294;-72
2022/09/06 06:39:26;;;;;;;5.10;3.30;;;;;;;16.33;100.00;99569.34;105123;1270;61375;-71
2022/09/06 06:41:52;;;;;;;4.70;3.30;;;;;;;16.46;100.00;99569.19;105056;1270;76277;-72
2022/09/06 06:44:18;;;;;;;5.70;3.10;;;;;;;16.64;100.00;99566.63;105070;1270;61729;-72
2022/09/06 06:46:44;;;;;;;7.20;3.30;;;;;;;16.73;100.00;99569.88;105055;1270;61344;-72
2022/09/06 06:49:10;;;;;;;6.30;3.00;;;;;;;16.65;100.00;99571.36;105075;1270;61275;-72
2022/09/06 06:51:36;;;;;;;6.80;3.10;;;;;;;16.56;100.00;99569.41;104886;1270;61272;-72
2022/09/06 06:54:04;;;;;;;7.60;3.40;;;;;;;16.50;100.00;99570.30;105094;1270;61288;-71
2022/09/06 06:56:36;;;;;;;5.00;3.40;;;;;;;16.49;100.00;99564.85;105164;1270;61346;-71
2022/09/06 06:59:04;;;;;;;7.20;4.10;;;;;;;16.48;100.00;99563.88;105057;1270;71384;-71
2022/09/06 07:01:32;;;;;;;4.40;3.40;;;;;;;16.43;100.00;99562.27;105165;1270;61263;-73
2022/09/06 07:03:58;;;;;;;16.50;5.00;;;;;;;16.38;100.00;99566.98;105057;1270;61156;-73
2022/09/06 07:06:26;;;;;;;6.10;3.30;;;;;;;16.42;100.00;99572.04;105045;1270;61272;-73
2022/09/06 07:08:55;;;;;;;6.50;3.70;;;;;;;16.57;100.00;99576.19;105132;1270;70254;-72
2022/09/06 07:11:21;;;;;;;7.90;3.60;;;;;;;16.78;100.00;99575.72;105101;1270;73410;-72
2022/09/06 07:13:47;;;;;;;5.10;3.60;;;;;;;17.00;100.00;99574.44;104968;1270;61803;-72
2022/09/06 07:16:20;;;;;;;6.20;3.40;;;;;;;17.11;100.00;99573.14;104992;1270;61158;-71
2022/09/06 07:18:50;;;;;;;8.30;3.90;;;;;;;17.20;100.00;99570.59;105159;1270;76504;-72
2022/09/06 07:21:18;;;;;;;6.10;3.80;;;;;;;17.28;100.00;99576.13;105028;1270;70725;-71
2022/09/06 07:23:45;;;;;;;8.30;4.20;;;;;;;17.34;100.00;99578.55;104855;1271;74631;-72
2022/09/06 07:26:18;;;;;;;9.40;3.90;;;;;;;17.48;100.00;99584.30;104758;1273;61307;-73
2022/09/06 07:28:45;;;;;;;5.10;3.70;;;;;;;17.57;100.00;99586.80;105082;1271;62091;-73
2022/09/06 07:31:12;;;;;;;6.60;3.80;;;;;;;17.64;100.00;99588.18;105037;1271;74698;-73
2022/09/06 07:33:38;;;;;;;8.90;4.10;;;;;;;17.75;100.00;99594.88;104953;1273;70267;-73
2022/09/06 07:36:06;;;;;;;7.50;3.60;;;;;;;17.83;100.00;99592.52;104941;1271;61281;-71
2022/09/06 07:38:34;;;;;;;7.90;3.40;;;;;;;17.96;100.00;99594.05;105000;1273;61387;-72
2022/09/06 07:41:04;;;;;;;8.40;4.60;;;;;;;18.03;98.43;99587.84;105125;1272;61346;-72
2022/09/06 07:43:31;;;;;;;9.00;4.10;;;;;;;18.12;97.87;99590.41;105018;1271;75147;-72
2022/09/06 07:46:01;;;;;;;7.80;4.40;;;;;;;18.18;97.06;99587.05;104976;1271;67715;-71
2022/09/06 07:48:29;;;;;;;9.20;4.40;;;;;;;18.23;97.92;99587.66;105002;1271;73274;-72
2022/09/06 07:50:55;;;;;;;6.60;3.90;;;;;;;18.34;97.13;99585.27;105008;1271;61393;-72
2022/09/06 07:53:21;;;;;;;8.60;4.10;;;;;;;18.37;96.98;99583.36;104991;1271;61189;-71
2022/09/06 07:55:47;;;;;;;8.30;3.60;;;;;;;18.39;96.86;99588.19;104938;1271;61374;-72
2022/09/06 07:58:14;;;;;;;11.90;4.60;;;;;;;18.45;96.50;99587.18;104953;1271;61365;-71
2022/09/06 08:00:40;;;;;;;5.20;3.60;;;;;;;18.47;95.78;99588.74;104906;1271;61360;-72
2022/09/06 08:03:06;;;;;;;4.70;3.90;;;;;;;18.50;94.88;99590.86;104928;1271;61300;-72
2022/09/06 08:05:32;;;;;;;4.70;3.50;;;;;;;18.45;93.57;99588.98;104791;1273;61378;-72
2022/09/06 08:07:58;;;;;;;7.40;4.00;;;;;;;18.44;94.51;99591.16;104958;1271;61335;-72
2022/09/06 08:10:24;;;;;;;9.60;4.50;;;;;;;18.59;94.97;99588.91;104962;1271;61902;-72
2022/09/06 08:12:56;;;;;;;4.30;3.80;;;;;;;18.79;95.19;99586.92;104920;1272;61303;-72
2022/09/06 08:15:22;;;;;;;9.40;3.80;;;;;;;18.91;94.22;99586.98;105046;1270;61323;-72
2022/09/06 08:17:49;;;;;;;7.60;3.70;;;;;;;18.97;93.52;99587.77;105044;1270;61336;-73
2022/09/06 08:20:15;;;;;;;8.70;3.80;;;;;;;19.08;93.80;99589.16;105123;1270;61283;-73
2022/09/06 08:22:42;;;;;;;8.50;4.20;;;;;;;19.14;92.32;99585.18;105092;1270;70273;-72
2022/09/06 08:25:09;;;;;;;8.40;4.20;;;;;;;19.12;92.58;99584.80;105039;1270;61308;-73
2022/09/06 08:27:35;;;;;;;15.30;4.20;;;;;;;19.10;92.86;99583.73;105071;1270;62696;-72
2022/09/06 08:30:03;;;;;;;9.40;3.90;;;;;;;19.11;93.11;99580.28;105108;1270;61348;-71
2022/09/06 08:32:33;;;;;;;7.10;4.00;;;;;;;19.13;93.49;99573.77;105107;1270;74662;-71
2022/09/06 08:34:59;;;;;;;8.80;4.30;;;;;;;19.15;93.54;99568.54;105102;1270;70869;-71
2022/09/06 08:37:25;;;;;;;10.20;4.00;;;;;;;19.07;93.47;99568.88;105072;1270;61374;-71
2022/09/06 08:39:51;;;;;;;6.30;4.00;;;;;;;18.96;93.42;99574.39;105059;1270;61473;-71
2022/09/06 08:42:17;;;;;;;7.00;4.40;;;;;;;18.83;94.15;99572.01;105057;1270;61349;-72
2022/09/06 08:44:50;;;;;;;5.60;3.90;;;;;;;18.74;94.11;99575.91;105073;1270;61349;-73
2022/09/06 08:47:19;;;;;;;5.10;4.00;;;;;;;18.64;94.51;99575.87;105074;1270;70321;-72
2022/09/06 08:49:47;;;;;;;6.50;4.10;;;;;;;18.53;93.93;99577.11;105038;1270;72740;-72
2022/09/06 08:52:23;;;;;;;4.90;3.30;;;;;;;18.45;94.60;99567.00;105119;1270;61260;-72
2022/09/06 08:54:59;;;;;;;7.10;3.80;;;;;;;18.42;94.73;99566.13;104936;1270;61217;-72
2022/09/06 08:57:45;;;;;;;7.10;3.70;;;;;;;18.42;95.10;99560.21;105011;1270;76238;-72
2022/09/06 09:00:14;;;;;;;6.10;3.60;;;;;;;18.43;95.41;99556.71;105085;1270;69388;-72
2022/09/06 09:02:51;;;;;;;5.50;3.80;;;;;;;18.47;95.87;99556.36;105035;1270;73221;-73
2022/09/06 09:05:24;;;;;;;7.80;3.90;;;;;;;18.50;95.61;99557.05;105058;1270;61399;-73
2022/09/06 09:08:05;;;;;;;7.70;4.20;;;;;;;18.50;95.61;99554.88;105078;1270;61229;-73
2022/09/06 09:10:46;;;;;;;8.10;4.00;;;;;;;18.53;96.28;99562.54;105053;1270;76584;-73
2022/09/06 09:13:21;;;;;;;7.30;3.20;;;;;;;18.57;95.00;99565.92;105020;1270;70340;-73
2022/09/06 09:15:47;;;;;;;6.60;3.70;;;;;;;18.61;95.62;99563.17;105061;1270;73407;-74
2022/09/06 09:18:20;;;;;;;6.10;3.60;;;;;;;18.71;95.27;99562.30;105056;1270;61279;-75
2022/09/06 09:20:46;;;;;;;4.20;3.40;;;;;;;18.79;94.97;99556.00;105110;1270;61240;-73
2022/09/06 09:23:12;;;;;;;6.50;3.80;;;;;;;18.84;94.69;99549.38;104923;1270;61400;-73
2022/09/06 09:25:38;;;;;;;6.10;3.20;;;;;;;18.88;94.06;99547.08;105078;1270;61266;-74
2022/09/06 09:28:14;;;;;;;6.60;3.40;;;;;;;18.88;93.06;99540.02;105058;1270;61368;-73
2022/09/06 09:30:49;;;;;;;5.80;3.30;;;;;;;18.89;92.81;99535.61;105084;1270;61203;-73
2022/09/06 09:33:37;;;;;;;5.60;3.70;;;;;;;18.99;93.23;99534.84;105087;1270;61305;-73
2022/09/06 09:36:08;;;;;;;8.90;4.10;;;;;;;19.18;93.65;99534.19;105056;1271;73661;-72
2022/09/06 09:38:42;;;;;;;6.90;3.90;;;;;;;19.41;93.76;99528.10;105068;1270;67398;-73
2022/09/06 09:41:23;;;;;;;6.20;3.70;;;;;;;19.64;93.39;99521.86;105039;1270;74435;-73
2022/09/06 09:44:01;;;;;;;7.30;3.60;;;;;;;19.81;92.86;99517.00;104916;1271;61333;-74
2022/09/06 09:46:33;;;;;;;6.80;4.20;;;;;;;20.02;91.81;99511.58;105094;1271;61341;-73
2022/09/06 09:49:12;;;;;;;9.10;4.30;;;;;;;20.15;91.99;99504.98;105118;1270;75590;-73
2022/09/06 09:52:11;;;;;;;11.40;4.10;;;;;;;20.45;91.96;99507.67;104996;1271;69784;-73
2022/09/06 09:54:41;;;;;;;10.50;4.30;;;;;;;20.75;91.82;99495.09;105111;1270;73235;-73
2022/09/06 09:57:09;;;;;;;7.60;4.40;;;;;;;20.96;90.93;99492.73;105141;1270;61221;-73
2022/09/06 09:59:57;;;;;;;6.80;4.00;;;;;;;21.27;90.78;99491.45;105211;1270;61266;-73
2022/09/06 10:02:34;;;;;;;7.70;3.40;;;;;;;21.56;89.47;99481.52;105145;1270;75726;-74
2022/09/06 10:05:03;;;;;;;5.50;3.00;;;;;;;21.88;88.88;99483.23;104971;1270;69493;-74
2022/09/06 10:07:32;;;;;;;4.80;3.00;;;;;;;21.99;82.35;99479.48;105128;1270;74339;-73
2022/09/06 10:10:03;;;;;;;8.40;3.00;;;;;;;21.97;80.44;99480.44;105131;1270;61260;-74
2022/09/06 10:12:38;;;;;;;6.10;3.00;;;;;;;21.90;79.57;99482.10;105225;1270;62045;-72
2022/09/06 10:15:08;;;;;;;4.70;2.90;;;;;;;21.68;77.43;99481.34;105230;1270;75314;-73
2022/09/06 10:17:36;;;;;;;;;;;;;;;21.37;75.27;99479.01;105199;1270;68232;-74
2022/09/06 10:20:10;;;;;;;11.20;3.10;;;;;;;21.08;75.41;99476.71;105149;1270;73614;-74
2022/09/06 10:22:48;;;;;;;8.00;3.20;;;;;;;20.99;74.39;99475.95;105173;1270;61391;-74
2022/09/06 10:25:29;;;;;;;6.00;2.50;;;;;;;20.89;74.42;99472.20;105144;1270;61867;-73
2022/09/06 10:28:07;;;;;;;8.80;2.90;;;;;;;20.66;73.88;99478.35;105136;1270;75191;-73
2022/09/06 10:30:41;;;;;;;5.30;2.90;;;;;;;20.51;75.07;99481.97;105142;1270;70432;-74
2022/09/06 10:33:32;;;;;;;7.20;2.60;;;;;;;20.52;75.91;99483.50;104934;1271;73840;-73
2022/09/06 10:36:00;;;;;;;2.90;2.70;;;;;;;20.59;76.46;99482.26;105136;1270;61547;-73
2022/09/06 10:38:52;;;;;;;6.60;2.60;;;;;;;20.68;75.05;99478.34;105190;1270;61256;-73
2022/09/06 10:41:53;;;;;;;5.40;2.80;;;;;;;20.73;75.07;99476.16;105272;1270;75998;-73
2022/09/06 10:44:41;;;;;;;6.30;2.60;;;;;;;20.84;72.91;99482.65;105152;1270;69383;-74
2022/09/06 10:47:13;;;;;;;4.70;2.90;;;;;;;20.93;73.57;99487.81;105139;1271;74402;-73
2022/09/06 10:49:45;;;;;;;9.70;2.90;;;;;;;21.08;73.48;99481.48;105159;1270;61259;-73
2022/09/06 10:52:16;;;;;;;5.40;2.60;;;;;;;21.25;73.85;99474.62;104944;1271;61269;-73
2022/09/06 10:54:46;;;;;;;8.00;2.90;;;;;;;21.41;72.85;99471.19;105136;1270;75452;-73
2022/09/06 10:57:20;;;;;;;7.00;3.20;;;;;;;21.53;70.83;99473.48;105152;1271;68881;-73
2022/09/06 10:59:52;;;;;;;6.70;3.30;;;;;;;21.68;71.06;99471.80;105146;1270;73624;-74
2022/09/06 11:02:26;;;;;;;7.90;3.10;;;;;;;21.83;71.33;99476.10;105138;1270;61399;-74
2022/09/06 11:05:02;;;;;;;3.90;2.60;;;;;;;22.03;69.93;99469.44;105102;1270;61982;-73
2022/09/06 11:07:33;;;;;;;9.00;3.10;;;;;;;22.17;69.42;99467.62;105184;1271;76521;-73
2022/09/06 11:10:06;;;;;;;8.50;3.30;;;;;;;22.30;69.64;99461.70;105171;1270;69782;-74
2022/09/06 11:12:57;;;;;;;8.40;2.70;;;;;;;22.56;70.35;99463.44;105135;1270;73333;-74
2022/09/06 11:15:27;;;;;;;7.20;3.20;;;;;;;22.92;68.94;99456.01;105149;1271;61154;-76
2022/09/06 11:18:02;;;;;;;;;;;;;;;22.88;66.56;99455.12;105130;1270;61274;-71
2022/09/06 11:21:09;;;;;;;6.20;3.30;;;;;;;22.77;65.25;99455.80;105155;1270;77039;-71
2022/09/06 11:24:24;;;;;;;6.70;2.90;;;;;;;22.65;63.68;99457.70;104505;1278;69233;-71
2022/09/06 11:27:05;;;;;;;5.80;2.60;;;;;;;22.49;59.39;99451.69;103928;1284;72703;-71
2022/09/06 11:29:33;;;;;;;3.60;2.50;;;;;;;22.32;57.18;99452.61;103949;1284;61600;-71
2022/09/06 11:32:22;;;;;;;3.40;2.70;;;;;;;22.10;55.74;99447.95;103833;1284;62278;-71
2022/09/06 11:34:57;;;;;;;5.00;2.30;;;;;;;21.89;56.25;99446.96;103930;1284;76600;-71